createdAt,value
2022-12-08T00:00:43.470Z,55.17
2022-12-08T00:03:20.166Z,53.00
2022-12-08T00:06:11.488Z,52.83
2022-12-08T00:09:00.829Z,54.00
2022-12-08T00:11:34.866Z,53.97
2022-12-08T00:14:08.875Z,52.20
2022-12-08T00:16:43.010Z,52.47
2022-12-08T00:19:18.958Z,53.50
2022-12-08T00:21:53.409Z,53.27
2022-12-08T00:24:30.270Z,53.90
2022-12-08T00:27:04.394Z,53.30
2022-12-08T00:29:38.539Z,55.17
2022-12-08T00:32:12.981Z,53.50
2022-12-08T00:34:49.601Z,52.40
2022-12-08T00:37:23.458Z,52.17
2022-12-08T00:39:57.284Z,52.43
2022-12-08T00:42:31.757Z,53.87
2022-12-08T00:45:05.671Z,52.80
2022-12-08T00:47:39.806Z,51.13
2022-12-08T00:50:16.572Z,53.63
2022-12-08T00:52:51.198Z,53.40
2022-12-08T00:55:25.561Z,52.23
2022-12-08T00:57:59.583Z,52.60
2022-12-08T01:00:33.991Z,53.47
2022-12-08T01:03:07.924Z,52.13
2022-12-08T01:05:43.793Z,51.80
2022-12-08T01:08:18.599Z,52.87
2022-12-08T01:10:52.795Z,54.30
2022-12-08T01:13:27.083Z,54.07
2022-12-08T01:16:01.449Z,52.77
2022-12-08T01:18:35.882Z,52.73
2022-12-08T01:21:12.473Z,53.57
2022-12-08T01:23:46.686Z,58.43
2022-12-08T01:26:22.008Z,54.17
2022-12-08T01:28:56.316Z,53.83
2022-12-08T01:31:30.533Z,54.30
2022-12-08T01:34:04.662Z,52.47
2022-12-08T01:36:42.137Z,51.67
2022-12-08T01:39:20.529Z,55.30
2022-12-08T01:41:55.523Z,55.03
2022-12-08T01:45:01.957Z,55.80
2022-12-08T01:47:45.006Z,55.23
2022-12-08T01:50:22.712Z,56.10
2022-12-08T01:53:02.807Z,56.63
2022-12-08T01:55:40.912Z,56.30
2022-12-08T01:58:22.096Z,57.10
2022-12-08T02:00:57.066Z,57.90
2022-12-08T02:03:34.032Z,56.53
2022-12-08T02:06:09.222Z,57.43
2022-12-08T02:08:46.567Z,55.73
2022-12-08T02:11:20.781Z,55.67
2022-12-08T02:13:57.185Z,53.27
2022-12-08T02:16:43.889Z,55.97
2022-12-08T02:19:46.624Z,55.87
2022-12-08T02:22:24.874Z,55.10
2022-12-08T02:25:07.639Z,55.27
2022-12-08T02:27:53.734Z,56.07
2022-12-08T02:30:36.558Z,57.73
2022-12-08T02:33:41.064Z,59.70
2022-12-08T02:36:23.072Z,58.50
2022-12-08T02:39:05.095Z,59.40
2022-12-08T02:41:49.259Z,61.50
2022-12-08T02:44:29.081Z,61.07
2022-12-08T02:47:07.900Z,63.20
2022-12-08T02:49:42.080Z,62.77
2022-12-08T02:52:48.522Z,62.57
2022-12-08T02:55:29.627Z,63.20
2022-12-08T02:58:31.881Z,63.00
2022-12-08T03:01:24.950Z,61.87
2022-12-08T03:04:08.758Z,61.03
2022-12-08T03:06:52.491Z,63.43
2022-12-08T03:09:34.537Z,64.53
2022-12-08T03:12:16.929Z,65.83
2022-12-08T03:14:57.325Z,65.03
2022-12-08T03:17:33.611Z,66.37
2022-12-08T03:20:12.845Z,65.03
2022-12-08T03:22:48.000Z,64.93
2022-12-08T03:25:26.143Z,66.57
2022-12-08T03:28:01.310Z,65.17
2022-12-08T03:30:38.213Z,66.97
2022-12-08T03:33:17.601Z,66.00
2022-12-08T03:35:52.387Z,63.40
2022-12-08T03:38:27.932Z,66.23
2022-12-08T03:41:19.658Z,66.03
2022-12-08T03:43:55.882Z,67.77
2022-12-08T03:49:02.857Z,67.60
2022-12-08T03:51:36.546Z,68.80
2022-12-08T03:54:10.922Z,68.27
2022-12-08T03:56:50.321Z,68.07
2022-12-08T03:59:27.189Z,68.93
2022-12-08T04:02:04.724Z,68.07
2022-12-08T04:04:40.872Z,70.97
2022-12-08T04:07:18.168Z,70.43
2022-12-08T04:09:55.612Z,69.93
2022-12-08T04:12:35.155Z,70.83
2022-12-08T04:15:12.038Z,70.33
2022-12-08T04:17:48.552Z,73.73
2022-12-08T04:20:25.043Z,74.80
2022-12-08T04:23:01.346Z,75.70
2022-12-08T04:25:39.057Z,75.23
2022-12-08T04:28:18.851Z,70.23
2022-12-08T04:30:56.143Z,72.43
2022-12-08T04:33:33.830Z,71.27
2022-12-08T04:36:11.645Z,68.90
2022-12-08T04:38:48.276Z,74.10
2022-12-08T04:41:25.671Z,70.70
2022-12-08T04:44:04.811Z,70.50
2022-12-08T04:46:43.648Z,69.30
2022-12-08T04:49:21.368Z,74.90
2022-12-08T04:52:02.893Z,71.67
2022-12-08T04:54:40.712Z,68.70
2022-12-08T04:57:18.375Z,69.73
2022-12-08T04:59:57.788Z,68.87
2022-12-08T05:02:35.496Z,67.80
2022-12-08T05:05:10.869Z,68.60
2022-12-08T05:07:44.942Z,68.00
2022-12-08T05:10:18.934Z,70.10
2022-12-08T05:12:53.123Z,68.00
2022-12-08T05:15:29.607Z,62.40
2022-12-08T05:18:04.044Z,68.17
2022-12-08T05:20:38.480Z,61.33
2022-12-08T05:23:13.148Z,55.97
2022-12-08T05:25:47.377Z,57.47
2022-12-08T05:31:19.560Z,64.60
2022-12-08T05:33:59.577Z,61.80
2022-12-08T05:36:36.495Z,62.97
2022-12-08T05:39:10.628Z,66.90
2022-12-08T05:41:44.904Z,64.63
2022-12-08T05:44:19.199Z,59.83
2022-12-08T05:46:55.520Z,56.90
2022-12-08T05:49:29.704Z,54.60
2022-12-08T05:52:03.920Z,54.43
2022-12-08T05:54:38.019Z,57.63
2022-12-08T05:57:12.566Z,64.30
2022-12-08T05:59:46.484Z,61.03
2022-12-08T06:02:22.557Z,60.57
2022-12-08T06:04:56.682Z,61.10
2022-12-08T06:07:31.122Z,65.13
2022-12-08T06:10:06.089Z,62.57
2022-12-08T06:12:40.719Z,53.10
2022-12-08T06:15:15.421Z,55.37
2022-12-08T06:17:51.408Z,58.33
2022-12-08T06:20:25.539Z,60.57
2022-12-08T06:23:00.129Z,65.77
2022-12-08T06:25:34.212Z,60.73
2022-12-08T06:28:10.443Z,61.63
2022-12-08T06:30:44.666Z,60.27
2022-12-08T06:33:20.612Z,61.33
2022-12-08T06:35:54.934Z,60.43
2022-12-08T06:38:29.804Z,57.13
2022-12-08T06:41:04.804Z,63.13
2022-12-08T06:43:39.050Z,63.43
2022-12-08T06:46:14.715Z,61.97
2022-12-08T06:48:52.246Z,63.63
2022-12-08T06:51:26.929Z,63.00
2022-12-08T06:54:01.866Z,67.43
2022-12-08T06:56:36.022Z,65.43
2022-12-08T06:59:10.867Z,68.57
2022-12-08T07:01:45.644Z,68.30
2022-12-08T07:04:22.411Z,71.43
2022-12-08T07:06:56.615Z,65.33
2022-12-08T07:09:30.691Z,71.10
2022-12-08T07:12:04.673Z,69.53
2022-12-08T07:14:38.764Z,67.37
2022-12-08T07:17:13.191Z,66.63
2022-12-08T07:19:49.682Z,64.13
2022-12-08T07:22:24.016Z,66.20
2022-12-08T07:24:58.740Z,63.97
2022-12-08T07:27:32.756Z,64.70
2022-12-08T07:30:07.581Z,66.03
2022-12-08T07:32:43.137Z,64.73
2022-12-08T07:35:19.311Z,62.97
2022-12-08T07:37:53.554Z,61.37
2022-12-08T07:40:28.125Z,61.40
2022-12-08T07:43:02.962Z,63.50
2022-12-08T07:45:37.052Z,64.33
2022-12-08T07:48:11.721Z,64.50
2022-12-08T07:50:48.152Z,68.50
2022-12-08T07:53:22.340Z,64.53
2022-12-08T07:55:56.730Z,67.20
2022-12-08T07:58:31.119Z,68.63
2022-12-08T08:01:05.774Z,67.63
2022-12-08T08:03:39.924Z,65.60
2022-12-08T08:06:16.047Z,66.30
2022-12-08T08:08:50.121Z,66.87
2022-12-08T08:11:24.402Z,67.53
2022-12-08T08:13:58.696Z,66.60
2022-12-08T08:16:38.072Z,65.20
2022-12-08T08:19:13.033Z,66.43
2022-12-08T08:21:50.756Z,68.50
2022-12-08T08:24:25.854Z,65.50
2022-12-08T08:27:00.583Z,66.43
2022-12-08T08:29:34.520Z,64.23
2022-12-08T08:32:09.009Z,65.23
2022-12-08T08:34:43.529Z,62.20
2022-12-08T08:37:20.299Z,60.70
2022-12-08T08:39:54.636Z,63.53
2022-12-08T08:42:29.055Z,61.90
2022-12-08T08:45:03.410Z,62.47
2022-12-08T08:47:38.189Z,62.90
2022-12-08T08:50:13.158Z,62.07
2022-12-08T08:52:49.811Z,61.10
2022-12-08T08:56:08.071Z,58.40
2022-12-08T08:58:46.668Z,59.73
2022-12-08T09:01:22.508Z,60.03
2022-12-08T09:03:57.725Z,61.47
2022-12-08T09:06:32.325Z,60.23
2022-12-08T09:09:09.458Z,62.57
2022-12-08T09:11:44.054Z,61.37
2022-12-08T09:14:18.593Z,60.80
2022-12-08T09:16:52.723Z,60.33
2022-12-08T09:19:26.865Z,60.13
2022-12-08T09:22:01.158Z,60.73
2022-12-08T09:24:37.752Z,60.50
2022-12-08T09:27:12.261Z,60.50
2022-12-08T09:29:46.802Z,58.70
2022-12-08T09:32:21.820Z,57.57
2022-12-08T09:34:56.787Z,58.27
2022-12-08T09:37:31.050Z,58.57
2022-12-08T09:40:08.623Z,58.80
2022-12-08T09:42:52.472Z,57.63
2022-12-08T09:45:27.569Z,56.90
2022-12-08T09:48:08.026Z,59.03
2022-12-08T09:50:46.644Z,58.53
2022-12-08T09:53:24.498Z,56.53
2022-12-08T09:56:03.084Z,58.83
2022-12-08T09:58:54.642Z,59.07
2022-12-08T10:01:32.883Z,59.50
2022-12-08T10:04:07.436Z,58.47
2022-12-08T10:06:46.954Z,60.97
2022-12-08T10:09:32.335Z,61.00
2022-12-08T10:12:17.089Z,64.70
2022-12-08T10:14:56.337Z,67.27
2022-12-08T10:17:32.975Z,63.90
2022-12-08T10:20:14.941Z,65.70
2022-12-08T10:22:51.210Z,63.57
2022-12-08T10:25:29.871Z,67.50
2022-12-08T10:28:07.181Z,67.60
2022-12-08T10:30:46.799Z,71.07
2022-12-08T10:33:23.800Z,66.10
2022-12-08T10:36:00.173Z,68.63
2022-12-08T10:38:37.468Z,66.23
2022-12-08T10:41:19.909Z,66.77
2022-12-08T10:44:03.942Z,68.47
2022-12-08T10:46:42.447Z,67.07
2022-12-08T10:49:28.576Z,68.77
2022-12-08T10:52:14.087Z,69.33
2022-12-08T10:55:40.139Z,68.23
2022-12-08T10:58:29.519Z,68.67
2022-12-08T11:01:09.748Z,70.07
2022-12-08T11:03:50.144Z,73.83
2022-12-08T11:06:31.763Z,71.97
2022-12-08T11:09:10.376Z,73.73
2022-12-08T11:11:55.960Z,73.67
2022-12-08T11:14:33.414Z,73.30
2022-12-08T11:17:13.065Z,75.47
2022-12-08T11:19:50.151Z,73.90
2022-12-08T11:22:33.107Z,71.50
2022-12-08T11:25:15.699Z,75.50
2022-12-08T11:27:52.314Z,75.47
2022-12-08T11:30:28.536Z,74.60
2022-12-08T11:33:12.526Z,75.77
2022-12-08T11:35:51.377Z,75.57
2022-12-08T11:38:30.430Z,75.90
2022-12-08T11:41:15.866Z,75.23
2022-12-08T11:44:06.575Z,73.70
2022-12-08T11:46:46.036Z,75.60
2022-12-08T11:49:23.704Z,76.27
2022-12-08T11:52:02.846Z,77.33
2022-12-08T11:54:40.571Z,78.20
2022-12-08T11:57:22.478Z,80.10
2022-12-08T12:00:02.701Z,75.10
2022-12-08T12:02:49.787Z,72.90
2022-12-08T12:06:08.678Z,70.23
2022-12-08T12:08:59.672Z,66.47
2022-12-08T12:12:06.949Z,61.77
2022-12-08T12:15:19.498Z,63.73
2022-12-08T12:18:00.192Z,61.93
2022-12-08T12:20:42.443Z,62.63
2022-12-08T12:23:27.417Z,60.97
2022-12-08T12:26:07.322Z,62.17
2022-12-08T12:28:51.617Z,63.37
2022-12-08T12:31:34.365Z,62.03
2022-12-08T12:34:19.639Z,62.30
2022-12-08T12:37:01.215Z,59.43
2022-12-08T12:39:42.600Z,63.37
2022-12-08T12:42:45.212Z,59.73
2022-12-08T12:45:36.614Z,63.50
2022-12-08T12:48:31.608Z,62.90
2022-12-08T12:51:28.847Z,63.37
2022-12-08T12:54:31.376Z,61.97
2022-12-08T12:57:26.050Z,61.67
2022-12-08T13:00:24.110Z,63.80
2022-12-08T13:03:02.880Z,63.37
2022-12-08T13:05:53.654Z,62.93
2022-12-08T13:08:32.896Z,62.77
2022-12-08T13:11:14.080Z,63.10
2022-12-08T13:14:05.650Z,64.27
2022-12-08T13:16:44.819Z,64.63
2022-12-08T13:19:23.110Z,64.83
2022-12-08T13:22:02.115Z,66.40
2022-12-08T13:24:40.267Z,63.80
2022-12-08T13:27:41.501Z,64.47
2022-12-08T13:30:49.598Z,64.80
2022-12-08T13:33:38.978Z,64.50
2022-12-08T13:36:28.396Z,64.10
2022-12-08T13:39:07.930Z,64.73
2022-12-08T13:41:49.306Z,66.30
2022-12-08T13:48:05.894Z,68.17
2022-12-08T13:52:37.056Z,66.03
2022-12-08T13:54:45.807Z,66.13
2022-12-08T13:57:12.083Z,67.37
2022-12-08T13:59:44.005Z,66.70
2022-12-08T14:02:31.439Z,65.13
2022-12-08T14:05:23.597Z,68.17
2022-12-08T14:08:07.082Z,67.50
2022-12-08T14:10:45.034Z,66.53
2022-12-08T14:13:23.481Z,67.57
2022-12-08T14:16:04.527Z,64.53
2022-12-08T14:18:42.017Z,66.43
2022-12-08T14:21:22.286Z,68.07
2022-12-08T14:23:59.966Z,69.13
2022-12-08T14:26:41.204Z,67.80
2022-12-08T14:29:49.915Z,71.47
2022-12-08T14:32:35.610Z,67.77
2022-12-08T14:35:26.893Z,67.23
2022-12-08T14:38:05.256Z,68.50
2022-12-08T14:40:43.031Z,69.20
2022-12-08T14:43:23.744Z,68.83
2022-12-08T14:46:24.936Z,70.33
2022-12-08T14:49:04.754Z,68.63
2022-12-08T14:51:46.020Z,70.53
2022-12-08T14:54:25.316Z,70.60
2022-12-08T14:57:04.664Z,68.27
2022-12-08T14:59:43.430Z,71.90
2022-12-08T15:02:37.372Z,69.80
2022-12-08T15:05:21.397Z,68.60
2022-12-08T15:08:00.890Z,67.70
2022-12-08T15:10:50.122Z,65.47
2022-12-08T15:13:30.988Z,66.57
2022-12-08T15:16:08.313Z,68.77
2022-12-08T15:18:46.501Z,67.43
2022-12-08T15:21:25.429Z,68.93
2022-12-08T15:24:02.989Z,69.40
2022-12-08T15:26:46.988Z,66.53
2022-12-08T15:29:28.745Z,68.97
2022-12-08T15:32:06.231Z,68.17
2022-12-08T15:34:43.582Z,68.30
2022-12-08T15:37:28.284Z,65.87
2022-12-08T15:40:05.706Z,68.80
2022-12-08T15:42:43.084Z,67.70
2022-12-08T15:45:20.415Z,66.97
2022-12-08T15:47:57.339Z,65.13
2022-12-08T15:50:33.924Z,67.27
2022-12-08T15:53:15.775Z,67.50
2022-12-08T15:56:25.599Z,66.50
2022-12-08T15:58:54.238Z,66.63
2022-12-08T16:01:32.305Z,64.70
2022-12-08T16:04:43.792Z,65.67
2022-12-08T16:07:20.828Z,64.80
2022-12-08T16:09:58.708Z,65.07
2022-12-08T16:13:48.255Z,63.57
2022-12-08T16:15:53.404Z,64.73
2022-12-08T16:18:34.383Z,64.27
2022-12-08T16:21:22.815Z,72.47
2022-12-08T16:24:09.007Z,68.17
2022-12-08T16:27:51.150Z,64.60
2022-12-08T16:29:40.294Z,63.30
2022-12-08T16:32:16.311Z,63.30
2022-12-08T16:34:50.979Z,60.57
2022-12-08T16:37:26.666Z,63.50
2022-12-08T16:40:01.789Z,64.90
2022-12-08T16:42:45.154Z,66.10
2022-12-08T16:45:20.938Z,62.43
2022-12-08T16:47:56.298Z,64.97
2022-12-08T16:50:32.486Z,63.33
2022-12-08T16:53:08.653Z,64.03
2022-12-08T16:55:43.268Z,64.13
2022-12-08T16:58:19.882Z,66.10
2022-12-08T17:00:54.806Z,68.50
2022-12-08T17:03:31.846Z,70.43
2022-12-08T17:06:06.051Z,68.00
2022-12-08T17:08:40.148Z,69.37
2022-12-08T17:11:43.699Z,69.77
2022-12-08T17:14:20.691Z,69.70
2022-12-08T17:16:54.786Z,69.40
2022-12-08T17:19:29.350Z,67.70
2022-12-08T17:22:03.929Z,67.37
2022-12-08T17:24:38.053Z,67.63
2022-12-08T17:27:12.856Z,62.07
2022-12-08T17:29:48.783Z,65.43
2022-12-08T17:32:23.268Z,61.10
2022-12-08T17:34:57.370Z,60.03
2022-12-08T17:37:31.846Z,60.03
2022-12-08T17:40:06.352Z,59.63
2022-12-08T17:42:40.563Z,62.00
2022-12-08T17:45:17.944Z,61.73
2022-12-08T17:47:52.052Z,62.50
2022-12-08T17:50:26.027Z,62.50
2022-12-08T17:53:00.210Z,65.87
2022-12-08T17:56:08.251Z,67.70
2022-12-08T17:58:42.162Z,75.83
2022-12-08T18:01:18.011Z,81.87
2022-12-08T18:03:54.378Z,80.83
2022-12-08T18:06:31.334Z,83.00
2022-12-08T18:09:06.381Z,80.37
2022-12-08T18:11:41.713Z,78.03
2022-12-08T18:14:17.785Z,78.43
2022-12-08T18:16:53.849Z,79.53
2022-12-08T18:19:27.820Z,80.73
2022-12-08T18:22:01.573Z,78.93
2022-12-08T18:24:56.238Z,80.43
2022-12-08T18:27:32.305Z,79.87
2022-12-08T18:30:06.822Z,79.83
2022-12-08T18:32:43.234Z,80.03
2022-12-08T18:35:17.267Z,78.90
2022-12-08T18:37:51.248Z,78.73
2022-12-08T18:40:25.725Z,80.23
2022-12-08T18:42:59.575Z,78.27
2022-12-08T18:45:33.312Z,78.57
2022-12-08T18:48:10.224Z,79.30
2022-12-08T18:50:47.450Z,78.43
2022-12-08T18:53:21.531Z,79.30
2022-12-08T18:55:55.856Z,81.70
2022-12-08T18:58:30.559Z,80.03
2022-12-08T19:01:05.474Z,81.20
2022-12-08T19:03:52.777Z,80.67
2022-12-08T19:06:36.584Z,79.50
2022-12-08T19:09:11.288Z,81.33
2022-12-08T19:11:46.113Z,80.43
2022-12-08T19:14:25.860Z,80.67
2022-12-08T19:17:02.721Z,79.83
2022-12-08T19:19:39.079Z,85.00
2022-12-08T19:22:13.781Z,81.40
2022-12-08T19:24:48.335Z,79.37
2022-12-08T19:27:22.667Z,80.17
2022-12-08T19:29:56.647Z,80.03
2022-12-08T19:32:31.494Z,80.00
2022-12-08T19:35:09.305Z,80.37
2022-12-08T19:37:43.486Z,78.73
2022-12-08T19:40:34.570Z,82.97
2022-12-08T19:43:21.177Z,76.53
2022-12-08T19:45:55.201Z,78.47
2022-12-08T19:48:29.450Z,79.57
2022-12-08T19:51:05.860Z,81.30
2022-12-08T19:53:45.889Z,78.53
2022-12-08T19:56:21.662Z,79.13
2022-12-08T19:58:55.388Z,79.63
2022-12-08T20:01:29.264Z,79.30
2022-12-08T20:04:03.019Z,78.87
2022-12-08T20:06:39.324Z,77.33
2022-12-08T20:09:14.426Z,80.37
2022-12-08T20:11:48.813Z,82.70
2022-12-08T20:14:23.783Z,80.80
2022-12-08T20:16:57.940Z,78.07
2022-12-08T20:19:31.959Z,80.27
2022-12-08T20:22:07.901Z,79.73
2022-12-08T20:24:41.941Z,81.13
2022-12-08T20:27:16.000Z,80.13
2022-12-08T20:29:50.201Z,79.80
2022-12-08T20:32:24.781Z,77.47
2022-12-08T20:34:59.070Z,81.83
2022-12-08T20:37:35.054Z,79.67
2022-12-08T20:40:10.222Z,81.63
2022-12-08T20:42:44.276Z,79.67
2022-12-08T20:45:18.587Z,79.83
2022-12-08T20:47:53.158Z,83.00
2022-12-08T20:50:27.204Z,78.60
2022-12-08T20:53:03.364Z,78.80
2022-12-08T20:55:38.249Z,75.23
2022-12-08T20:58:12.569Z,75.10
2022-12-08T21:00:46.854Z,75.50
2022-12-08T21:03:21.067Z,78.57
2022-12-08T21:05:55.838Z,74.93
2022-12-08T21:08:31.717Z,77.37
2022-12-08T21:11:06.609Z,78.27
2022-12-08T21:13:43.102Z,77.40
2022-12-08T21:16:18.778Z,76.23
2022-12-08T21:18:52.985Z,79.23
2022-12-08T21:21:27.803Z,77.27
2022-12-08T21:24:05.170Z,76.20
2022-12-08T21:26:40.181Z,77.77
2022-12-08T21:29:14.906Z,76.83
2022-12-08T21:31:49.275Z,76.70
2022-12-08T21:34:23.385Z,76.17
2022-12-08T21:36:57.811Z,76.57
2022-12-08T21:39:34.026Z,78.70
2022-12-08T21:42:27.838Z,78.60
2022-12-08T21:45:05.559Z,76.37
2022-12-08T21:47:39.807Z,77.47
2022-12-08T21:50:14.687Z,76.87
2022-12-08T21:52:51.022Z,76.50
2022-12-08T21:55:27.309Z,76.90
2022-12-08T21:58:02.169Z,76.40
2022-12-08T22:00:36.679Z,76.83
2022-12-08T22:03:11.379Z,76.93
2022-12-08T22:05:45.802Z,76.20
2022-12-08T22:08:19.949Z,75.17
2022-12-08T22:10:56.133Z,76.27
2022-12-08T22:13:30.040Z,75.83
2022-12-08T22:16:05.965Z,79.10
2022-12-08T22:18:41.485Z,76.57
2022-12-08T22:21:16.835Z,75.80
2022-12-08T22:23:50.900Z,77.90
2022-12-08T22:26:26.778Z,77.37
2022-12-08T22:29:00.999Z,75.13
2022-12-08T22:31:34.917Z,75.70
2022-12-08T22:34:08.739Z,76.43
2022-12-08T22:36:43.667Z,76.13
2022-12-08T22:39:18.434Z,77.50
2022-12-08T22:41:54.598Z,76.77
2022-12-08T22:44:29.406Z,76.30
2022-12-08T22:47:03.513Z,76.87
2022-12-08T22:49:37.924Z,76.13
2022-12-08T22:52:12.979Z,75.67
2022-12-08T22:54:47.841Z,76.33
2022-12-08T22:57:23.826Z,77.27
2022-12-08T22:59:57.792Z,77.87
2022-12-08T23:02:31.832Z,79.07
2022-12-08T23:05:06.156Z,82.47
2022-12-08T23:07:40.903Z,81.60
2022-12-08T23:10:16.100Z,81.63
2022-12-08T23:12:52.452Z,82.00
2022-12-08T23:15:27.686Z,80.57
2022-12-08T23:18:02.191Z,80.67
2022-12-08T23:20:36.295Z,78.90
2022-12-08T23:23:10.810Z,76.93
2022-12-08T23:25:46.097Z,79.10
2022-12-08T23:28:22.143Z,80.47
2022-12-08T23:30:56.140Z,80.33
2022-12-08T23:33:30.022Z,79.57
2022-12-08T23:36:04.981Z,78.23
2022-12-08T23:38:39.403Z,79.90
2022-12-08T23:41:15.114Z,78.03
2022-12-08T23:43:52.876Z,79.00
2022-12-08T23:46:28.149Z,78.07
2022-12-08T23:49:03.028Z,77.77
2022-12-08T23:51:37.215Z,78.73
2022-12-08T23:54:11.623Z,79.53
2022-12-08T23:56:45.886Z,79.10
2022-12-08T23:59:21.848Z,79.40
